メインページ
METAR-TAF:

METAR-TAF

空港 :

ボストン, マサチューセッツ州, アメリカ合衆国

ジェネラル・エドワード・ローレンス・ローガン国際空港

緯度: 42-21-38N, 経度: 071-00-38W, 海抜: 6m

現時点の気象観測

当レポートは1時間9分前の20:54(UTC)に作成
南/南西の風 15kt、最大23ktの突風を伴う
気温 9°C
湿度 66%
気圧 1028 hPa
視程: 16.1km
高度4700ftの千切れ雲あり
高度9000ftの千切れ雲あり
高度22000ftの曇り

METAR: KBOS 192054Z 21015G23KT 10SM BKN047 BKN090 OVC220 09/03 A3037 RMK AO2 PK WND 22026/1955 SLP282 T00890033 56018

時間: 17:03 (22:03 UTC)

予報

当レポートは52分前の21:11(UTC)に作成
予報は19日の 21時(UTC)から 20日の 24時(UTC)まで有効
南/南西の風 15kt、最大23ktの突風を伴う
視程: 10km
高度4500ftの千切れ雲あり
高度9000ftの千切れ雲あり
高度22000ftの曇り
19日の 2200時(UTC)から
の風 9kt、最大19ktの突風を伴う
視程: 10km
高度4500ftの曇り
近辺でにわか雨
20日の 0000時(UTC)から
の風 9kt
視程: 9.7km
高度3000ftの曇り
弱いにわか雨, 靄
20日の 0200時(UTC)から
南/南西の風 9kt
視程: 6.4km
高度1500ftの曇り
弱いにわか雨, 靄
20日の 0400時(UTC)から
南/南西の風 10kt
視程: 6.4km
高度1000ftの曇り
靄, 近辺でにわか雨
20日の 0900時(UTC)から
南西の風 8kt
視程: 8.0km
高度2000ftの曇り
20日の 1500時(UTC)から
南西の風 9kt
視程: 10km
高度6000ftの千切れ雲あり

TAF: KBOS 192111Z 1921/2024 21015G23KT P6SM BKN045 BKN090 OVC220 FM192200 19009G19KT P6SM VCSH OVC045 FM200000 19009KT 6SM -SHRA BR OVC030 FM200200 20009KT 4SM -SHRA BR OVC015 FM200400 21010KT 4SM BR VCSH OVC010 FM200900 22008KT 5SM BR OVC020 FM201500 23009KT P6SM BKN060

4,000以上の空港の気象観測と天気予報(METAR報とTAF報)

利用可能な観測所は地図上に黄色い丸と赤い丸で示す。

丸の上にカーソルを重ねると観測所名を参照できる。

次にクリックすると気象観測と天気予報を参照できる。

マップの切り替え:黒色「×」印の緑ボタンをクリックして拡大、「-」印の緑ボタンをクリックして縮小、緑色の三角印をクリックして隣りの地図に切り替え


METAR-TAF: